Time;durP1;ratioP1;P1;durP2;ratioP2;P2;SDS_P1;SDS_P2;PMS_P1;PMS_P2;Temp;Humidity;BMP_temperature;BMP_pressure;BME280_temperature;BME280_humidity;BME280_pressure;Samples;Min_cycle;Max_cycle;Signal;HPM_P1;HPM_P2
2022/11/17 00:01:33;;;;;;;5.3;3.5;;;;;;;;;;;;;
2022/11/17 00:04:05;;;;;;;4.3;3.1;;;;;;;;;;;;;
2022/11/17 00:06:30;;;;;;;3.8;3.4;;;;;;;;;;;;;
2022/11/17 00:09:04;;;;;;;3.9;3.1;;;;;;;;;;;;;
2022/11/17 00:14:31;;;;;;;4.1;3.2;;;;;;;;;;;;;
2022/11/17 00:16:33;;;;;;;4.6;3;;;;;;;;;;;;;
2022/11/17 00:21:37;;;;;;;4.1;3;;;;;;;;;;;;;
2022/11/17 00:24:06;;;;;;;4.1;3;;;;;;;;;;;;;
2022/11/17 00:27:00;;;;;;;4;3.3;;;;;;;;;;;;;
2022/11/17 00:29:03;;;;;;;4.1;3.2;;;;;;;;;;;;;
2022/11/17 00:34:05;;;;;;;3.7;2.8;;;;;;;;;;;;;
2022/11/17 00:36:20;;;;;;;4.7;3;;;;;;;;;;;;;
2022/11/17 00:38:46;;;;;;;3.2;2.7;;;;;;;;;;;;;
2022/11/17 00:41:12;;;;;;;4.1;2.8;;;;;;;;;;;;;
2022/11/17 00:43:37;;;;;;;3.1;2.3;;;;;;;;;;;;;
2022/11/17 00:46:03;;;;;;;3.4;2.5;;;;;;;;;;;;;
2022/11/17 00:48:28;;;;;;;3.3;2.5;;;;;;;;;;;;;
2022/11/17 00:51:21;;;;;;;3.1;2.4;;;;;;;;;;;;;
2022/11/17 00:53:34;;;;;;;3.6;2.5;;;;;;;;;;;;;
2022/11/17 00:55:59;;;;;;;2.8;2.3;;;;;;;;;;;;;
2022/11/17 00:58:24;;;;;;;2.1;1.9;;;;;;;;;;;;;
2022/11/17 01:00:50;;;;;;;2.3;2.1;;;;;;;;;;;;;
2022/11/17 01:03:15;;;;;;;2;1.8;;;;;;;;;;;;;
2022/11/17 01:05:41;;;;;;;2.6;2.2;;;;;;;;;;;;;
2022/11/17 01:08:06;;;;;;;4.1;2.6;;;;;;;;;;;;;
2022/11/17 01:10:32;;;;;;;4.6;2.6;;;;;;;;;;;;;
2022/11/17 01:12:57;;;;;;;4.9;3;;;;;;;;;;;;;
2022/11/17 01:15:29;;;;;;;4.7;2.6;;;;;;;;;;;;;
2022/11/17 01:17:55;;;;;;;3.5;2.5;;;;;;;;;;;;;
2022/11/17 01:20:20;;;;;;;3.3;2.4;;;;;;;;;;;;;
2022/11/17 01:22:46;;;;;;;4.2;2.4;;;;;;;;;;;;;
2022/11/17 01:25:11;;;;;;;3;2.2;;;;;;;;;;;;;
2022/11/17 01:27:36;;;;;;;3.1;2.5;;;;;;;;;;;;;
2022/11/17 01:30:01;;;;;;;2.7;2.1;;;;;;;;;;;;;
2022/11/17 01:32:28;;;;;;;3.3;2.2;;;;;;;;;;;;;
2022/11/17 01:34:54;;;;;;;2.8;2.1;;;;;;;;;;;;;
2022/11/17 01:37:20;;;;;;;2.1;1.7;;;;;;;;;;;;;
2022/11/17 01:39:45;;;;;;;2.3;2;;;;;;;;;;;;;
2022/11/17 01:42:12;;;;;;;2.9;2.1;;;;;;;;;;;;;
2022/11/17 01:44:37;;;;;;;3.2;2.3;;;;;;;;;;;;;
2022/11/17 01:47:03;;;;;;;2.8;2.5;;;;;;;;;;;;;
2022/11/17 01:49:28;;;;;;;3.3;2.4;;;;;;;;;;;;;
2022/11/17 01:51:53;;;;;;;2.6;2.2;;;;;;;;;;;;;
2022/11/17 01:54:18;;;;;;;3.4;2.4;;;;;;;;;;;;;
2022/11/17 01:56:43;;;;;;;3.1;2.6;;;;;;;;;;;;;
2022/11/17 01:59:12;;;;;;;3.6;2.1;;;;;;;;;;;;;
2022/11/17 02:01:54;;;;;;;3.6;2.2;;;;;;;;;;;;;
2022/11/17 02:04:17;;;;;;;2.6;2.1;;;;;;;;;;;;;
2022/11/17 02:06:42;;;;;;;3.2;2.2;;;;;;;;;;;;;
2022/11/17 02:09:28;;;;;;;3.5;2;;;;;;;;;;;;;
2022/11/17 02:11:50;;;;;;;2.2;1.7;;;;;;;;;;;;;
2022/11/17 02:14:15;;;;;;;2.4;2;;;;;;;;;;;;;
2022/11/17 02:16:40;;;;;;;1.8;1.7;;;;;;;;;;;;;
2022/11/17 02:19:06;;;;;;;2.3;2;;;;;;;;;;;;;
2022/11/17 02:21:31;;;;;;;2.5;2.2;;;;;;;;;;;;;
2022/11/17 02:24:18;;;;;;;3.3;2.2;;;;;;;;;;;;;
2022/11/17 02:26:43;;;;;;;2.1;1.9;;;;;;;;;;;;;
2022/11/17 02:29:08;;;;;;;2.6;1.9;;;;;;;;;;;;;
2022/11/17 02:31:33;;;;;;;2.4;1.9;;;;;;;;;;;;;
2022/11/17 02:33:59;;;;;;;2;1.8;;;;;;;;;;;;;
2022/11/17 02:36:24;;;;;;;2.5;2.1;;;;;;;;;;;;;
2022/11/17 02:38:49;;;;;;;2.2;1.9;;;;;;;;;;;;;
2022/11/17 02:41:17;;;;;;;4.4;2;;;;;;;;;;;;;
2022/11/17 02:46:07;;;;;;;2.6;1.9;;;;;;;;;;;;;
2022/11/17 02:48:34;;;;;;;2.3;1.8;;;;;;;;;;;;;
2022/11/17 02:50:59;;;;;;;2.5;2;;;;;;;;;;;;;
2022/11/17 02:53:25;;;;;;;2;1.8;;;;;;;;;;;;;
2022/11/17 02:55:50;;;;;;;1.5;1.4;;;;;;;;;;;;;
2022/11/17 02:58:17;;;;;;;1.9;1.7;;;;;;;;;;;;;
2022/11/17 03:00:42;;;;;;;2;1.8;;;;;;;;;;;;;
2022/11/17 03:03:07;;;;;;;2.4;2.2;;;;;;;;;;;;;
2022/11/17 03:05:34;;;;;;;3.2;2.1;;;;;;;;;;;;;
2022/11/17 03:07:59;;;;;;;2.6;2;;;;;;;;;;;;;
2022/11/17 03:10:25;;;;;;;2.5;2;;;;;;;;;;;;;
2022/11/17 03:12:50;;;;;;;1.9;1.8;;;;;;;;;;;;;
2022/11/17 03:15:15;;;;;;;2.7;2.1;;;;;;;;;;;;;
2022/11/17 03:17:41;;;;;;;2.8;2.4;;;;;;;;;;;;;
2022/11/17 03:20:05;;;;;;;2.1;1.9;;;;;;;;;;;;;
2022/11/17 03:22:31;;;;;;;2.4;2.2;;;;;;;;;;;;;
2022/11/17 03:24:56;;;;;;;2.8;2.1;;;;;;;;;;;;;
2022/11/17 03:27:21;;;;;;;2.4;2.2;;;;;;;;;;;;;
2022/11/17 03:29:46;;;;;;;2.4;2.1;;;;;;;;;;;;;
2022/11/17 03:32:13;;;;;;;3.4;2.2;;;;;;;;;;;;;
2022/11/17 03:34:38;;;;;;;3.2;2.6;;;;;;;;;;;;;
2022/11/17 03:37:03;;;;;;;3.2;2.2;;;;;;;;;;;;;
2022/11/17 03:39:28;;;;;;;3.1;2.3;;;;;;;;;;;;;
2022/11/17 03:41:53;;;;;;;3.5;2.4;;;;;;;;;;;;;
2022/11/17 03:44:19;;;;;;;3.5;2.5;;;;;;;;;;;;;
2022/11/17 03:46:44;;;;;;;3.4;2.6;;;;;;;;;;;;;
2022/11/17 03:49:10;;;;;;;3;2.2;;;;;;;;;;;;;
2022/11/17 03:51:35;;;;;;;2.2;1.9;;;;;;;;;;;;;
2022/11/17 03:54:01;;;;;;;2.1;1.9;;;;;;;;;;;;;
2022/11/17 03:56:26;;;;;;;2.2;1.9;;;;;;;;;;;;;
2022/11/17 03:58:51;;;;;;;2.2;2;;;;;;;;;;;;;
2022/11/17 04:02:34;;;;;;;2.1;1.9;;;;;;;5.42;100;920.4678;;;;
2022/11/17 04:05:17;;;;;;;2.4;1.6;;;;;;;5.31;100;920.5472;;;;
2022/11/17 04:07:27;;;;;;;3.6;2.1;;;;;;;5.47;100;920.553;;;;
2022/11/17 04:09:52;;;;;;;2.7;2.1;;;;;;;5.28;100;920.4636;;;;
2022/11/17 04:17:08;;;;;;;3;2.2;;;;;;;5.12;100;920.3465;;;;
2022/11/17 04:19:33;;;;;;;2.5;2;;;;;;;5.14;100;920.3055;;;;
2022/11/17 04:22:00;;;;;;;2;1.7;;;;;;;5.07;100;920.3378;;;;
2022/11/17 04:24:25;;;;;;;3.4;1.8;;;;;;;4.94;100;920.2679;;;;
2022/11/17 04:29:20;;;;;;;3;1.9;;;;;;;4.98;100;920.2853;;;;
2022/11/17 04:31:45;;;;;;;2.8;2.4;;;;;;;4.99;100;920.2893;;;;
2022/11/17 04:34:12;;;;;;;2;1.8;;;;;;;5.11;100;920.3937;;;;
2022/11/17 04:36:39;;;;;;;3.2;2.1;;;;;;;5.12;100;920.3606;;;;
2022/11/17 04:39:05;;;;;;;2.2;2;;;;;;;5.22;100;920.3168;;;;
2022/11/17 04:42:31;;;;;;;2.1;1.8;;;;;;;5.31;100;920.2742;;;;
2022/11/17 04:44:00;;;;;;;2;1.8;;;;;;;5.32;100;920.23;;;;
2022/11/17 04:46:25;;;;;;;3.7;2.4;;;;;;;5.37;100;920.2324;;;;
2022/11/17 04:48:52;;;;;;;3.7;2.2;;;;;;;5.38;100;920.2473;;;;
2022/11/17 04:51:17;;;;;;;2.7;1.9;;;;;;;5.39;100;920.2971;;;;
2022/11/17 04:53:43;;;;;;;2.7;2.2;;;;;;;5.35;100;920.4604;;;;
2022/11/17 04:56:08;;;;;;;2.5;2.2;;;;;;;5.3;100;920.5527;;;;
2022/11/17 04:58:35;;;;;;;3.5;2.8;;;;;;;5.29;100;920.7287;;;;
2022/11/17 05:01:11;;;;;;;3.5;2.8;;;;;;;5.09;100;920.9545;;;;
2022/11/17 05:03:28;;;;;;;5.4;3.4;;;;;;;5.19;100;921.0115;;;;
2022/11/17 05:06:00;;;;;;;4.9;3.3;;;;;;;5.17;100;921.1795;;;;
2022/11/17 05:08:27;;;;;;;5.7;3.3;;;;;;;5.1;100;921.1495;;;;
2022/11/17 05:13:24;;;;;;;6.7;3.4;;;;;;;5.4;100;921.0405;;;;
2022/11/17 05:18:18;;;;;;;4.8;3.7;;;;;;;5.77;100;921.082;;;;
2022/11/17 05:20:46;;;;;;;6.5;4.5;;;;;;;5.83;99.7998;921.1794;;;;
2022/11/17 05:25:46;;;;;;;5;3.3;;;;;;;5.78;99.46094;921.225;;;;
2022/11/17 05:28:11;;;;;;;2.7;2.2;;;;;;;5.84;99.97266;921.2489;;;;
2022/11/17 05:30:40;;;;;;;3.7;2.1;;;;;;;5.86;99.48926;921.1967;;;;
2022/11/17 05:33:08;;;;;;;2.8;2.3;;;;;;;5.94;99.55371;921.0785;;;;
2022/11/17 05:35:33;;;;;;;2.5;2;;;;;;;6.09;99.16016;921.0817;;;;
2022/11/17 05:38:01;;;;;;;2.9;2;;;;;;;6.16;98.74707;921.1487;;;;
2022/11/17 05:46:09;;;;;;;2.1;1.7;;;;;;;6.14;99.3623;921.4419;;;;
2022/11/17 05:48:34;;;;;;;2.1;1.8;;;;;;;6.21;99.34277;921.348;;;;
2022/11/17 05:51:01;;;;;;;6;4.1;;;;;;;6.25;99.23145;921.3203;;;;
2022/11/17 05:53:26;;;;;;;6.8;4.5;;;;;;;6.33;99.2168;921.3462;;;;
2022/11/17 05:55:54;;;;;;;5.6;3.6;;;;;;;6.47;98.89551;921.2244;;;;
2022/11/17 05:58:20;;;;;;;3.9;2.6;;;;;;;6.56;98.22754;921.1632;;;;
2022/11/17 06:00:45;;;;;;;2.6;1.8;;;;;;;6.4;98.87109;921.1002;;;;
2022/11/17 06:03:10;;;;;;;1.6;1.4;;;;;;;6.3;99.97656;921.072;;;;
2022/11/17 06:05:40;;;;;;;2;1.8;;;;;;;6.33;99.72266;921.0451;;;;
2022/11/17 06:08:05;;;;;;;2.3;1.9;;;;;;;6.29;99.17188;920.9654;;;;
2022/11/17 06:10:30;;;;;;;1.8;1.4;;;;;;;6.36;98.51074;921.1303;;;;
2022/11/17 06:12:55;;;;;;;3.2;1.9;;;;;;;6.44;98.12012;921.0601;;;;
2022/11/17 06:15:32;;;;;;;1.9;1.7;;;;;;;6.35;96.39355;920.9691;;;;
2022/11/17 06:17:57;;;;;;;1.6;1.5;;;;;;;6.44;95.37402;921.0095;;;;
2022/11/17 06:20:22;;;;;;;1.4;1.2;;;;;;;6.57;93.68262;921.0106;;;;
2022/11/17 06:22:49;;;;;;;1.2;1.1;;;;;;;6.81;93.16797;920.9688;;;;
2022/11/17 06:25:14;;;;;;;1.6;1.3;;;;;;;6.8;92.96191;920.9285;;;;
2022/11/17 06:27:44;;;;;;;3.9;3;;;;;;;6.68;93.90918;920.8965;;;;
2022/11/17 06:30:13;;;;;;;4.1;3.2;;;;;;;6.43;96.53613;920.8981;;;;
2022/11/17 06:32:38;;;;;;;5.1;3.4;;;;;;;6.44;97.04785;920.7762;;;;
2022/11/17 06:35:04;;;;;;;6;3.9;;;;;;;6.19;98.40137;920.6461;;;;
2022/11/17 06:37:29;;;;;;;5.6;3.8;;;;;;;6.08;99.30469;920.7405;;;;
2022/11/17 06:39:58;;;;;;;4.3;3.7;;;;;;;6.04;100;920.7469;;;;
2022/11/17 06:43:02;;;;;;;6.4;3.5;;;;;;;6.04;100;920.5912;;;;
2022/11/17 06:44:49;;;;;;;4.1;2.6;;;;;;;6;100;920.5025;;;;
2022/11/17 06:47:16;;;;;;;4;2.9;;;;;;;6.06;100;920.4023;;;;
2022/11/17 06:49:41;;;;;;;4.5;3.3;;;;;;;6.24;100;920.4147;;;;
2022/11/17 06:52:06;;;;;;;2.4;2.2;;;;;;;6.4;99.37793;920.5485;;;;
2022/11/17 06:54:33;;;;;;;3.7;2.5;;;;;;;6.34;99.31836;920.6111;;;;
2022/11/17 06:56:58;;;;;;;2.8;2.1;;;;;;;6.3;99.24219;920.5765;;;;
2022/11/17 06:59:25;;;;;;;2.9;2.5;;;;;;;6.34;99.56934;920.7463;;;;
2022/11/17 07:02:00;;;;;;;2.4;2.2;;;;;;;6.32;100;920.6879;;;;
2022/11/17 07:04:30;;;;;;;2.3;1.9;;;;;;;6.22;100;920.6842;;;;
2022/11/17 07:06:55;;;;;;;2.7;2.1;;;;;;;6.06;100;920.7935;;;;
2022/11/17 07:09:20;;;;;;;2.3;1.9;;;;;;;6.11;100;920.8574;;;;
2022/11/17 07:11:48;;;;;;;1.6;1.5;;;;;;;6.21;100;920.8889;;;;
2022/11/17 07:14:13;;;;;;;3.1;2.1;;;;;;;6.3;100;920.9835;;;;
2022/11/17 07:16:39;;;;;;;3.2;2;;;;;;;6.35;100;921.0553;;;;
2022/11/17 07:19:06;;;;;;;3.8;2.8;;;;;;;6.42;99.9707;921.1131;;;;
2022/11/17 07:21:29;;;;;;;2.8;2.4;;;;;;;6.57;99.72363;921.2193;;;;
2022/11/17 07:24:09;;;;;;;3.8;3;;;;;;;6.7;99.39258;921.212;;;;
2022/11/17 07:26:39;;;;;;;3.7;2.8;;;;;;;6.87;98.21875;921.2614;;;;
2022/11/17 07:29:04;;;;;;;3.5;2.4;;;;;;;6.92;96.8252;921.2921;;;;
2022/11/17 07:31:36;;;;;;;3.4;2.6;;;;;;;7.06;96.59766;921.37;;;;
2022/11/17 07:34:01;;;;;;;3.4;2.7;;;;;;;7.05;96.42578;921.3566;;;;
2022/11/17 07:36:29;;;;;;;5.5;3.3;;;;;;;7.1;96.26563;921.43;;;;
2022/11/17 07:38:54;;;;;;;3.6;2.2;;;;;;;7.15;96.21191;921.375;;;;
2022/11/17 07:41:21;;;;;;;3.6;3.1;;;;;;;7.14;96.08301;921.3245;;;;
2022/11/17 07:43:46;;;;;;;4.6;2.9;;;;;;;7.33;96.03516;921.3118;;;;
2022/11/17 07:46:14;;;;;;;3.1;2.3;;;;;;;7.52;95.5791;921.2436;;;;
2022/11/17 07:48:39;;;;;;;3.3;2.4;;;;;;;7.8;95.37109;921.1965;;;;
2022/11/17 07:51:04;;;;;;;3;2.3;;;;;;;8.11;93.79297;921.2548;;;;
2022/11/17 07:53:31;;;;;;;2.5;1.9;;;;;;;9.18;92.47754;921.2225;;;;
2022/11/17 07:55:56;;;;;;;1.5;1.4;;;;;;;10.54;83.26855;921.1892;;;;
2022/11/17 07:58:24;;;;;;;1.3;1.2;;;;;;;11.9;75.3418;921.1856;;;;
2022/11/17 08:00:51;;;;;;;1.8;1.5;;;;;;;13.08;69.66699;921.2115;;;;
2022/11/17 08:03:16;;;;;;;1.3;1;;;;;;;13.48;66.04004;921.1931;;;;
2022/11/17 08:05:43;;;;;;;1.2;1.1;;;;;;;13.3;64.8877;921.2275;;;;
2022/11/17 08:08:08;;;;;;;1.8;1;;;;;;;12.97;67.39844;921.1799;;;;
2022/11/17 08:10:34;;;;;;;1.3;1.2;;;;;;;13.29;66.31055;921.2031;;;;
2022/11/17 08:13:01;;;;;;;2.4;1.7;;;;;;;13.31;64.8877;921.2623;;;;
2022/11/17 08:15:37;;;;;;;1.5;1.4;;;;;;;13.56;63.33887;921.2394;;;;
2022/11/17 08:18:07;;;;;;;1.6;1.3;;;;;;;12.78;67.1748;921.223;;;;
2022/11/17 08:20:31;;;;;;;1.3;1.1;;;;;;;13.64;63.52344;921.0358;;;;
2022/11/17 08:22:59;;;;;;;2.3;1.7;;;;;;;14.31;62.58398;921.0686;;;;
2022/11/17 08:25:24;;;;;;;2;1.1;;;;;;;14;63.26563;921.0427;;;;
2022/11/17 08:27:54;;;;;;;1.9;1.3;;;;;;;14.68;60.96582;921.0347;;;;
2022/11/17 08:30:29;;;;;;;2;1.2;;;;;;;14.33;59.30469;921.0703;;;;
2022/11/17 08:32:52;;;;;;;1.1;0.8;;;;;;;13.47;60.21094;921.087;;;;
2022/11/17 08:35:20;;;;;;;1;0.9;;;;;;;12.07;66.53613;921.1014;;;;
2022/11/17 08:37:45;;;;;;;1.4;0.7;;;;;;;11.81;66.22168;921.0845;;;;
2022/11/17 08:40:15;;;;;;;1.4;1;;;;;;;11.83;69.38672;921.0533;;;;
2022/11/17 08:42:43;;;;;;;5.2;1.4;;;;;;;11.53;69.69238;920.9852;;;;
2022/11/17 08:45:08;;;;;;;1.1;1;;;;;;;11.56;71.20801;920.9;;;;
2022/11/17 08:47:36;;;;;;;1.2;1.1;;;;;;;11.41;70.40723;920.8777;;;;
2022/11/17 08:50:01;;;;;;;2.4;1;;;;;;;11.17;72.37891;920.8999;;;;
2022/11/17 08:52:29;;;;;;;1.3;0.9;;;;;;;11.16;70.82324;920.9199;;;;
2022/11/17 08:54:54;;;;;;;2.3;1.4;;;;;;;11.2;72.79688;920.8792;;;;
2022/11/17 08:57:24;;;;;;;1;0.9;;;;;;;10.91;70.70215;920.9088;;;;
2022/11/17 08:59:53;;;;;;;0.7;0.7;;;;;;;10.9;71.35254;920.8787;;;;
2022/11/17 09:02:18;;;;;;;1.7;1.4;;;;;;;10.96;73.57813;920.939;;;;
2022/11/17 09:04:44;;;;;;;1.1;1;;;;;;;10.77;74.53809;920.9026;;;;
2022/11/17 09:07:12;;;;;;;1.3;1.2;;;;;;;10.74;75.40332;920.8721;;;;
2022/11/17 09:09:37;;;;;;;1.1;1;;;;;;;10.89;73.71582;920.7818;;;;
2022/11/17 09:12:02;;;;;;;1.3;0.9;;;;;;;10.96;75.00879;920.8959;;;;
2022/11/17 09:14:31;;;;;;;0.8;0.8;;;;;;;10.99;74.25879;920.8681;;;;
2022/11/17 09:17:01;;;;;;;0.9;0.9;;;;;;;11.16;73.40625;920.7726;;;;
2022/11/17 09:19:34;;;;;;;1.1;0.9;;;;;;;11.22;72.61621;920.8306;;;;
2022/11/17 09:22:02;;;;;;;0.7;0.7;;;;;;;11.17;70.44629;920.825;;;;
2022/11/17 09:24:27;;;;;;;0.9;0.7;;;;;;;11.25;72.24316;920.9303;;;;
2022/11/17 09:26:56;;;;;;;1.1;0.8;;;;;;;11.31;71.30371;920.9889;;;;
2022/11/17 09:29:19;;;;;;;0.8;0.7;;;;;;;11.31;71.43066;921.0126;;;;
2022/11/17 09:31:46;;;;;;;1.2;0.9;;;;;;;11.37;71.7373;921.068;;;;
2022/11/17 09:34:10;;;;;;;3.1;1.3;;;;;;;11.51;69.10645;921.0189;;;;
2022/11/17 09:36:38;;;;;;;1.6;1.1;;;;;;;11.46;69.37207;920.9285;;;;
2022/11/17 09:39:03;;;;;;;1.9;1.2;;;;;;;11.33;69.76367;920.887;;;;
2022/11/17 09:41:28;;;;;;;0.8;0.8;;;;;;;11.37;68.96973;920.9189;;;;
2022/11/17 09:43:53;;;;;;;1.6;0.9;;;;;;;11.33;70.14063;920.9365;;;;
2022/11/17 09:46:20;;;;;;;0.9;0.9;;;;;;;11.38;70.33301;920.9194;;;;
2022/11/17 09:48:45;;;;;;;1.7;1.5;;;;;;;11.69;71.27539;920.8517;;;;
2022/11/17 09:51:10;;;;;;;3.2;1.2;;;;;;;12.02;70.75586;920.8752;;;;
2022/11/17 09:53:35;;;;;;;2.4;0.8;;;;;;;12.14;67.10938;920.8467;;;;
2022/11/17 09:56:00;;;;;;;0.7;0.7;;;;;;;12.11;65.6377;920.8978;;;;
2022/11/17 09:58:28;;;;;;;1.4;1.1;;;;;;;12.21;66.40918;920.9056;;;;
2022/11/17 10:00:53;;;;;;;0.7;0.7;;;;;;;12.23;64.99121;920.875;;;;
2022/11/17 10:07:13;;;;;;;2.5;1.3;;;;;;;12.19;67.02539;921.0314;;;;
2022/11/17 10:09:44;;;;;;;2.1;1.1;;;;;;;12.36;64.59863;920.9611;;;;
2022/11/17 10:12:09;;;;;;;1.4;0.9;;;;;;;12.25;65.06348;920.7541;;;;
2022/11/17 10:14:34;;;;;;;3.4;1;;;;;;;12.38;65.07031;920.695;;;;
2022/11/17 10:17:03;;;;;;;1.8;0.7;;;;;;;12.39;64.80957;920.772;;;;
2022/11/17 10:27:48;;;;;;;2.1;0.6;;;;;;;12.58;64.72168;920.757;;;;
2022/11/17 10:30:03;;;;;;;1.2;0.6;;;;;;;12.36;60.17285;920.8094;;;;
2022/11/17 10:32:30;;;;;;;1.8;0.8;;;;;;;12.52;62.09863;920.7849;;;;
2022/11/17 10:34:56;;;;;;;0.7;0.7;;;;;;;12.84;63.06152;920.7953;;;;
2022/11/17 10:37:21;;;;;;;0.6;0.6;;;;;;;12.99;62.46289;920.7256;;;;
2022/11/17 10:39:54;;;;;;;1.1;0.6;;;;;;;13.15;63.30273;920.7086;;;;
2022/11/17 10:42:23;;;;;;;1.3;0.9;;;;;;;13.22;59.9248;920.8172;;;;
2022/11/17 10:45:01;;;;;;;1.6;0.6;;;;;;;13.23;61.46484;920.8091;;;;
2022/11/17 10:47:26;;;;;;;1.7;0.7;;;;;;;13.43;61.45898;920.7955;;;;
2022/11/17 10:49:51;;;;;;;2.1;0.6;;;;;;;13.59;58.3418;920.7523;;;;
2022/11/17 10:52:16;;;;;;;0.5;0.5;;;;;;;13.53;59.88672;920.7717;;;;
2022/11/17 10:54:45;;;;;;;1.5;0.8;;;;;;;13.79;58.80664;920.8297;;;;
2022/11/17 10:57:10;;;;;;;0.6;0.6;;;;;;;13.93;58.19141;920.8424;;;;
2022/11/17 10:59:37;;;;;;;0.5;0.5;;;;;;;14.04;58.67773;920.848;;;;
2022/11/17 11:02:03;;;;;;;1;0.4;;;;;;;14.23;58.64648;920.7764;;;;
2022/11/17 11:04:28;;;;;;;0.7;0.7;;;;;;;14.37;57.71973;920.7936;;;;
2022/11/17 11:06:55;;;;;;;0.8;0.6;;;;;;;14.57;58.11523;920.8267;;;;
2022/11/17 11:09:20;;;;;;;2.4;1.1;;;;;;;14.67;58.83105;920.9462;;;;
2022/11/17 11:11:47;;;;;;;2.6;0.8;;;;;;;14.33;57.24316;921.0192;;;;
2022/11/17 11:14:12;;;;;;;4.4;1.1;;;;;;;14.33;59.68457;920.9824;;;;
2022/11/17 11:16:37;;;;;;;1.6;1.2;;;;;;;14.31;61.50195;920.9941;;;;
2022/11/17 11:19:04;;;;;;;1.3;0.8;;;;;;;14.31;59.85449;920.9604;;;;
2022/11/17 11:21:30;;;;;;;0.7;0.7;;;;;;;14.24;58.62598;920.7986;;;;
2022/11/17 11:23:55;;;;;;;1.2;0.6;;;;;;;14.13;60.67188;920.7761;;;;
2022/11/17 11:26:20;;;;;;;1.3;0.7;;;;;;;14.13;61.5459;920.8467;;;;
2022/11/17 11:28:47;;;;;;;1.6;0.9;;;;;;;13.98;62.99805;920.9359;;;;
2022/11/17 11:31:12;;;;;;;1.3;1;;;;;;;13.84;63.99121;920.9651;;;;
2022/11/17 11:33:37;;;;;;;1.1;1;;;;;;;13.74;64.9873;920.9008;;;;
2022/11/17 11:36:09;;;;;;;1.7;1.2;;;;;;;13.68;65.41504;920.8828;;;;
2022/11/17 11:38:35;;;;;;;2.3;1;;;;;;;13.65;64.93945;920.8627;;;;
2022/11/17 11:41:00;;;;;;;1.4;0.9;;;;;;;13.66;65.11328;920.9009;;;;
2022/11/17 11:43:26;;;;;;;1.5;1.1;;;;;;;13.71;64.5;920.9593;;;;
2022/11/17 11:45:53;;;;;;;1.1;1;;;;;;;13.74;64.49316;920.8594;;;;
2022/11/17 11:48:18;;;;;;;1.6;0.8;;;;;;;13.72;62.53516;920.9672;;;;
2022/11/17 11:50:43;;;;;;;3.5;1.5;;;;;;;13.78;65.5;921.0106;;;;
2022/11/17 11:53:09;;;;;;;1.7;1.2;;;;;;;13.55;63.1543;921.0686;;;;
2022/11/17 11:55:35;;;;;;;2;1.2;;;;;;;13.26;62.64063;921.1367;;;;
2022/11/17 11:58:00;;;;;;;1.4;1.1;;;;;;;13.35;65.60645;921.0887;;;;
2022/11/17 12:00:25;;;;;;;2;1.5;;;;;;;13.48;65.27051;921.1011;;;;
2022/11/17 12:02:53;;;;;;;2.1;1.2;;;;;;;13.72;64.4209;921.0461;;;;
2022/11/17 12:05:22;;;;;;;2.7;1.7;;;;;;;14.04;58.93262;921.0056;;;;
2022/11/17 12:07:49;;;;;;;1.7;1.1;;;;;;;14.37;58.44629;921.0361;;;;
2022/11/17 12:10:14;;;;;;;1.4;1.1;;;;;;;14.59;60.34277;920.9877;;;;
2022/11/17 12:12:39;;;;;;;1.2;1.1;;;;;;;14.44;60.54004;921.0577;;;;
2022/11/17 12:15:05;;;;;;;2.6;1.4;;;;;;;14.38;61.47754;921.0542;;;;
2022/11/17 12:17:30;;;;;;;2.2;1.3;;;;;;;14.28;61.2793;921.1049;;;;
2022/11/17 12:19:58;;;;;;;2.7;1.3;;;;;;;14.22;61.3291;921.105;;;;
2022/11/17 12:22:23;;;;;;;1.4;1.3;;;;;;;14.13;62.57031;921.1131;;;;
2022/11/17 12:24:48;;;;;;;1.9;1.3;;;;;;;14.09;65.35156;921.1808;;;;
2022/11/17 12:27:13;;;;;;;1.8;1;;;;;;;14.06;65.27734;921.048;;;;
2022/11/17 12:29:38;;;;;;;1.2;1.1;;;;;;;14.11;66.86035;921.1252;;;;
2022/11/17 12:32:03;;;;;;;4.2;1.4;;;;;;;14.03;66.43457;921.1189;;;;
2022/11/17 12:34:29;;;;;;;2.1;1.1;;;;;;;14.01;66.25879;921.015;;;;
2022/11/17 12:36:57;;;;;;;3.5;1.6;;;;;;;14.1;64.38477;921.1334;;;;
2022/11/17 12:39:22;;;;;;;12.4;7;;;;;;;14.22;66.6377;921.2106;;;;
2022/11/17 12:41:51;;;;;;;2.8;2;;;;;;;14.12;69.11914;921.2961;;;;
2022/11/17 12:44:16;;;;;;;2.9;1.9;;;;;;;14.12;68.61426;921.3072;;;;
2022/11/17 12:46:42;;;;;;;9.8;7.2;;;;;;;14.16;67.77832;921.2532;;;;
2022/11/17 12:49:06;;;;;;;1.3;1.2;;;;;;;14.18;66.79102;921.2062;;;;
2022/11/17 12:51:31;;;;;;;4.4;3.5;;;;;;;14.19;67.7832;921.177;;;;
2022/11/17 12:53:56;;;;;;;1.9;1.7;;;;;;;14.11;68.59961;921.1467;;;;
2022/11/17 12:56:26;;;;;;;4.3;2;;;;;;;14.16;68.62988;921.1147;;;;
2022/11/17 12:58:55;;;;;;;3;2.3;;;;;;;14.15;69.18262;921.2119;;;;
2022/11/17 13:01:21;;;;;;;2.3;1.6;;;;;;;14;69.83691;921.2451;;;;
2022/11/17 13:03:46;;;;;;;2.7;1.5;;;;;;;13.91;70.0166;921.2231;;;;
2022/11/17 13:06:14;;;;;;;5.4;1.9;;;;;;;13.93;67.94824;921.1777;;;;
2022/11/17 13:08:39;;;;;;;5;2;;;;;;;13.91;65.09375;921.0943;;;;
2022/11/17 13:11:05;;;;;;;3.7;2.1;;;;;;;13.94;64.69629;921.0851;;;;
2022/11/17 13:13:34;;;;;;;6.1;2.6;;;;;;;13.85;64.90137;921.0744;;;;
2022/11/17 13:16:02;;;;;;;2.6;2.1;;;;;;;13.82;64.82715;921.0834;;;;
2022/11/17 13:18:27;;;;;;;2.7;1.9;;;;;;;13.85;66.78809;921.0952;;;;
2022/11/17 13:20:52;;;;;;;2.8;1.7;;;;;;;13.83;66.24316;921.0966;;;;
2022/11/17 13:23:20;;;;;;;4.2;1.8;;;;;;;13.84;66.72949;921.1739;;;;
2022/11/17 13:25:46;;;;;;;8.5;3.2;;;;;;;13.82;65.87402;921.1682;;;;
2022/11/17 13:28:11;;;;;;;4.7;2.6;;;;;;;13.82;66.70215;921.2001;;;;
2022/11/17 13:30:39;;;;;;;6.9;2.8;;;;;;;13.56;65.68457;921.2442;;;;
2022/11/17 13:33:05;;;;;;;4.7;2.9;;;;;;;13.39;68.00293;921.2696;;;;
2022/11/17 13:35:30;;;;;;;5.6;3;;;;;;;13.23;70.10449;921.3614;;;;
2022/11/17 13:37:55;;;;;;;4.4;2.6;;;;;;;12.99;71.59277;921.3862;;;;
2022/11/17 13:40:24;;;;;;;4.9;2.6;;;;;;;12.96;73.80273;921.5012;;;;
2022/11/17 13:42:49;;;;;;;5.7;2.5;;;;;;;12.78;75.27539;921.5186;;;;
2022/11/17 13:45:19;;;;;;;7.3;3.3;;;;;;;12.65;76.80273;921.4828;;;;
2022/11/17 13:47:48;;;;;;;3.1;1.9;;;;;;;12.41;78.08008;921.45;;;;
2022/11/17 13:50:14;;;;;;;3.7;2.4;;;;;;;12.31;77.48828;921.3789;;;;
2022/11/17 13:52:38;;;;;;;3.6;2.3;;;;;;;12.27;78.16992;921.344;;;;
2022/11/17 13:55:04;;;;;;;3.5;2.5;;;;;;;12.73;80.07617;921.3106;;;;
2022/11/17 13:57:29;;;;;;;4.2;2.9;;;;;;;14.74;71.02637;921.152;;;;
2022/11/17 13:59:57;;;;;;;4.7;2.9;;;;;;;15.44;65.7959;921.0705;;;;
2022/11/17 14:02:23;;;;;;;3.4;2.3;;;;;;;14.93;66.20215;921.1219;;;;
2022/11/17 14:04:48;;;;;;;2.9;2;;;;;;;14.59;66.22168;921.0156;;;;
2022/11/17 14:07:13;;;;;;;5.1;3;;;;;;;13.95;68.125;921.0627;;;;
2022/11/17 14:09:38;;;;;;;8.1;2.7;;;;;;;13.64;68.05469;921.1069;;;;
2022/11/17 14:12:06;;;;;;;4.1;2.7;;;;;;;13.72;69.74609;921.0598;;;;
2022/11/17 14:14:31;;;;;;;3.5;2.7;;;;;;;14.05;69.14258;920.918;;;;
2022/11/17 14:16:56;;;;;;;3.5;2.1;;;;;;;14.26;67.06934;920.8716;;;;
2022/11/17 14:19:24;;;;;;;4.3;2.9;;;;;;;14.38;67.31738;920.9164;;;;
2022/11/17 14:21:49;;;;;;;6.2;3.5;;;;;;;14.47;65.9375;920.8644;;;;
2022/11/17 14:24:19;;;;;;;6.2;3.1;;;;;;;14.54;66.09863;920.8091;;;;
2022/11/17 14:26:44;;;;;;;8.2;3;;;;;;;14.74;65.50488;920.7707;;;;
2022/11/17 14:29:09;;;;;;;5.5;2.3;;;;;;;14.77;64.24121;920.7745;;;;
2022/11/17 14:31:37;;;;;;;2.5;1.7;;;;;;;14.43;65.04492;920.8353;;;;
2022/11/17 14:34:03;;;;;;;3.5;1.6;;;;;;;14.28;65.95508;920.8036;;;;
2022/11/17 14:36:31;;;;;;;3.2;2.3;;;;;;;14.1;66.88281;920.85;;;;
2022/11/17 14:38:56;;;;;;;4.3;2.9;;;;;;;13.76;68.45215;920.9202;;;;
2022/11/17 14:41:21;;;;;;;3.2;2.5;;;;;;;13.49;69.97363;920.945;;;;
2022/11/17 14:43:50;;;;;;;4.6;2.8;;;;;;;13.28;71.11133;920.8677;;;;
2022/11/17 14:46:13;;;;;;;7.3;2.6;;;;;;;13.09;71.55273;920.8691;;;;
2022/11/17 14:48:41;;;;;;;3.4;2.6;;;;;;;13.02;72.83887;920.8161;;;;
2022/11/17 14:51:06;;;;;;;2.4;1.7;;;;;;;12.7;71.05176;920.7605;;;;
2022/11/17 14:53:33;;;;;;;6.3;4.1;;;;;;;12.61;73.6416;920.7785;;;;
2022/11/17 14:55:58;;;;;;;4.8;3.3;;;;;;;12.47;75.2334;920.7208;;;;
2022/11/17 14:58:25;;;;;;;4;2.7;;;;;;;12.32;75.28711;920.7164;;;;
2022/11/17 15:00:50;;;;;;;3.7;2.3;;;;;;;12.27;73.37695;920.6483;;;;
2022/11/17 15:03:16;;;;;;;7.1;3.1;;;;;;;12.23;75.14746;920.5997;;;;
2022/11/17 15:05:41;;;;;;;10.3;6.5;;;;;;;12.15;74.87012;920.616;;;;
2022/11/17 15:08:09;;;;;;;3.9;2.4;;;;;;;12.07;74.85449;920.6348;;;;
2022/11/17 15:10:35;;;;;;;3.1;2;;;;;;;11.99;74.80859;920.6896;;;;
2022/11/17 15:12:59;;;;;;;3.4;2.1;;;;;;;12;74.64844;920.644;;;;
2022/11/17 15:15:32;;;;;;;2.8;2.3;;;;;;;11.98;75.15137;920.7011;;;;
2022/11/17 15:18:00;;;;;;;6.7;4.4;;;;;;;11.89;76.29102;920.6778;;;;
2022/11/17 15:20:25;;;;;;;7;4.6;;;;;;;11.79;77.01855;920.73;;;;
2022/11/17 15:22:52;;;;;;;5.2;3.8;;;;;;;11.64;78.70703;920.7628;;;;
2022/11/17 15:25:17;;;;;;;7.2;3.6;;;;;;;11.5;79.87305;920.6853;;;;
2022/11/17 15:27:43;;;;;;;6.2;2.5;;;;;;;11.27;81.61523;920.6606;;;;
2022/11/17 15:30:08;;;;;;;3.2;2.2;;;;;;;11.15;82.97461;920.6933;;;;
2022/11/17 15:32:37;;;;;;;3.5;2.8;;;;;;;10.92;84.59863;920.685;;;;
2022/11/17 15:35:02;;;;;;;4.8;3.3;;;;;;;10.82;85.05859;920.6917;;;;
2022/11/17 15:37:30;;;;;;;5.4;3.4;;;;;;;10.88;84.85449;920.6763;;;;
2022/11/17 15:39:55;;;;;;;4.5;3.5;;;;;;;10.87;84.53223;920.7742;;;;
2022/11/17 15:42:20;;;;;;;5.3;3.9;;;;;;;10.8;84.33594;920.7675;;;;
2022/11/17 15:44:47;;;;;;;4.3;3.1;;;;;;;10.74;83.60547;920.7844;;;;
2022/11/17 15:47:12;;;;;;;4.4;3.1;;;;;;;10.66;83.29297;920.673;;;;
2022/11/17 15:49:41;;;;;;;4.8;3;;;;;;;10.67;83.13477;920.6705;;;;
2022/11/17 15:52:06;;;;;;;5.5;3.2;;;;;;;10.73;83.16992;920.7745;;;;
2022/11/17 15:54:33;;;;;;;5.8;3.8;;;;;;;10.73;83.93457;920.7792;;;;
2022/11/17 15:57:00;;;;;;;5.4;3.6;;;;;;;10.72;83.7041;920.7586;;;;
2022/11/17 15:59:26;;;;;;;6.8;4;;;;;;;10.69;83.58301;920.7385;;;;
2022/11/17 16:01:53;;;;;;;10.1;3.9;;;;;;;10.68;83.91504;920.8024;;;;
2022/11/17 16:04:18;;;;;;;7;4.1;;;;;;;10.6;84.81055;920.7472;;;;
2022/11/17 16:06:43;;;;;;;6.7;3.9;;;;;;;10.52;85.11426;920.779;;;;
2022/11/17 16:09:08;;;;;;;6.2;3.8;;;;;;;;;;;;;
2022/11/17 16:11:33;;;;;;;7.6;4.8;;;;;;;;;;;;;
2022/11/17 16:14:05;;;;;;;7.8;4.4;;;;;;;;;;;;;
2022/11/17 16:16:30;;;;;;;9;4.9;;;;;;;;;;;;;
2022/11/17 16:18:55;;;;;;;7.5;4.1;;;;;;;;;;;;;
2022/11/17 16:21:20;;;;;;;8.2;3.2;;;;;;;;;;;;;
2022/11/17 16:23:45;;;;;;;12.7;3.5;;;;;;;;;;;;;
2022/11/17 16:26:11;;;;;;;4.6;2.8;;;;;;;;;;;;;
2022/11/17 16:28:36;;;;;;;8.1;4.6;;;;;;;;;;;;;
2022/11/17 16:31:03;;;;;;;10.1;6.5;;;;;;;;;;;;;
2022/11/17 16:33:28;;;;;;;7.6;5.9;;;;;;;;;;;;;
2022/11/17 16:35:54;;;;;;;7.3;5.8;;;;;;;;;;;;;